Terminal Aerodrome Forecast
Issued by NWS

Home | Current Version | Previous Version | Text Only | Print | Product List | Glossary On
Versions: 1 2 3 4 5 6 7 8 9 10 11 12 13
000
FTUS45 KGJT 050154 AAB
TAFRIL
TAF AMD
KRIL 050154Z 0502/0524 27007KT P6SM FEW070 SCT250
     FM050300 13005KT P6SM SCT250
     FM051600 00000KT P6SM BKN250
     FM051900 25010G20KT P6SM SCT070 BKN200=

USA.gov is the U.S. government's official web portal to all federal, state and local government web resources and services.